sensor_id;sensor_type;location;lat;lon;timestamp;pressure;altitude;pressure_sealevel;temperature;humidity
36092;BME280;22147;52.388;13.390;2023-08-30T00:00:53;100025.00;;;11.92;100.00
36092;BME280;22147;52.388;13.390;2023-08-30T00:03:23;100023.38;;;11.91;100.00
36092;BME280;22147;52.388;13.390;2023-08-30T00:05:53;100016.22;;;11.90;100.00
36092;BME280;22147;52.388;13.390;2023-08-30T00:08:23;100023.38;;;11.91;100.00
36092;BME280;22147;52.388;13.390;2023-08-30T00:10:53;100028.50;;;11.89;100.00
36092;BME280;22147;52.388;13.390;2023-08-30T00:13:23;100023.72;;;11.89;100.00
36092;BME280;22147;52.388;13.390;2023-08-30T00:15:53;100020.13;;;11.89;100.00
36092;BME280;22147;52.388;13.390;2023-08-30T00:18:23;100020.13;;;11.89;100.00
36092;BME280;22147;52.388;13.390;2023-08-30T00:20:53;100013.28;;;11.86;100.00
36092;BME280;22147;52.388;13.390;2023-08-30T00:23:23;100015.38;;;11.89;100.00
36092;BME280;22147;52.388;13.390;2023-08-30T00:25:53;100011.78;;;11.89;100.00
36092;BME280;22147;52.388;13.390;2023-08-30T00:28:23;100011.31;;;11.87;100.00
36092;BME280;22147;52.388;13.390;2023-08-30T00:30:55;100020.84;;;11.86;100.00
36092;BME280;22147;52.388;13.390;2023-08-30T00:33:24;100014.81;;;11.84;100.00
36092;BME280;22147;52.388;13.390;2023-08-30T00:35:58;100011.56;;;11.81;100.00
36092;BME280;22147;52.388;13.390;2023-08-30T00:38:29;100011.56;;;11.81;100.00
36092;BME280;22147;52.388;13.390;2023-08-30T00:40:57;100015.97;;;11.82;100.00
36092;BME280;22147;52.388;13.390;2023-08-30T00:43:26;100015.16;;;11.82;100.00
36092;BME280;22147;52.388;13.390;2023-08-30T00:45:56;100016.75;;;11.83;100.00
36092;BME280;22147;52.388;13.390;2023-08-30T00:48:27;100007.16;;;11.80;100.00
36092;BME280;22147;52.388;13.390;2023-08-30T00:50:57;100009.47;;;11.78;100.00
36092;BME280;22147;52.388;13.390;2023-08-30T00:53:27;100014.59;;;11.76;100.00
36092;BME280;22147;52.388;13.390;2023-08-30T00:55:57;100018.88;;;11.74;100.00
36092;BME280;22147;52.388;13.390;2023-08-30T00:58:27;100019.25;;;11.72;100.00
36092;BME280;22147;52.388;13.390;2023-08-30T01:00:55;100012.88;;;11.72;100.00
36092;BME280;22147;52.388;13.390;2023-08-30T01:03:23;100014.28;;;11.66;100.00
36092;BME280;22147;52.388;13.390;2023-08-30T01:05:52;100022.53;;;11.62;100.00
36092;BME280;22147;52.388;13.390;2023-08-30T01:08:20;100032.75;;;11.58;100.00
36092;BME280;22147;52.388;13.390;2023-08-30T01:13:58;100028.22;;;11.53;100.00
36092;BME280;22147;52.388;13.390;2023-08-30T01:16:37;100025.34;;;11.50;100.00
36092;BME280;22147;52.388;13.390;2023-08-30T01:19:38;100032.06;;;11.49;100.00
36092;BME280;22147;52.388;13.390;2023-08-30T01:22:37;100028.13;;;11.50;100.00
36092;BME280;22147;52.388;13.390;2023-08-30T01:28:30;100032.78;;;11.46;100.00
36092;BME280;22147;52.388;13.390;2023-08-30T01:31:02;100033.09;;;11.44;100.00
36092;BME280;22147;52.388;13.390;2023-08-30T01:33:33;100037.28;;;11.38;100.00
36092;BME280;22147;52.388;13.390;2023-08-30T01:36:05;100036.50;;;11.37;100.00
36092;BME280;22147;52.388;13.390;2023-08-30T01:38:39;100038.81;;;11.35;100.00
36092;BME280;22147;52.388;13.390;2023-08-30T01:41:08;100030.00;;;11.33;100.00
36092;BME280;22147;52.388;13.390;2023-08-30T01:43:41;100031.59;;;11.34;100.00
36092;BME280;22147;52.388;13.390;2023-08-30T01:46:15;100024.44;;;11.33;100.00
36092;BME280;22147;52.388;13.390;2023-08-30T01:48:50;100029.19;;;11.33;100.00
36092;BME280;22147;52.388;13.390;2023-08-30T01:51:21;100027.09;;;11.30;100.00
36092;BME280;22147;52.388;13.390;2023-08-30T01:53:54;100038.59;;;11.28;100.00
36092;BME280;22147;52.388;13.390;2023-08-30T01:56:27;100037.44;;;11.29;100.00
36092;BME280;22147;52.388;13.390;2023-08-30T01:58:57;100044.16;;;11.28;100.00
36092;BME280;22147;52.388;13.390;2023-08-30T02:01:28;100039.88;;;11.31;100.00
36092;BME280;22147;52.388;13.390;2023-08-30T02:03:58;100043.91;;;11.33;100.00
36092;BME280;22147;52.388;13.390;2023-08-30T02:06:42;100038.69;;;11.32;100.00
36092;BME280;22147;52.388;13.390;2023-08-30T02:12:39;100038.22;;;11.30;100.00
36092;BME280;22147;52.388;13.390;2023-08-30T02:15:15;100042.19;;;11.29;100.00
36092;BME280;22147;52.388;13.390;2023-08-30T02:17:48;100046.94;;;11.28;100.00
36092;BME280;22147;52.388;13.390;2023-08-30T02:20:18;100042.06;;;11.25;100.00
36092;BME280;22147;52.388;13.390;2023-08-30T02:22:48;100038.13;;;11.26;100.00
36092;BME280;22147;52.388;13.390;2023-08-30T02:25:19;100034.53;;;11.26;100.00
36092;BME280;22147;52.388;13.390;2023-08-30T02:27:54;100032.78;;;11.21;100.00
36092;BME280;22147;52.388;13.390;2023-08-30T02:30:24;100032.25;;;11.15;100.00
36092;BME280;22147;52.388;13.390;2023-08-30T02:32:54;100034.09;;;11.11;100.00
36092;BME280;22147;52.388;13.390;2023-08-30T02:35:24;100039.19;;;11.09;100.00
36092;BME280;22147;52.388;13.390;2023-08-30T02:37:54;100036.03;;;11.11;100.00
36092;BME280;22147;52.388;13.390;2023-08-30T02:40:25;100033.50;;;11.06;100.00
36092;BME280;22147;52.388;13.390;2023-08-30T02:42:55;100025.06;;;11.02;100.00
36092;BME280;22147;52.388;13.390;2023-08-30T02:45:23;100032.47;;;10.98;100.00
36092;BME280;22147;52.388;13.390;2023-08-30T02:47:55;100027.63;;;10.95;100.00
36092;BME280;22147;52.388;13.390;2023-08-30T02:50:29;100035.16;;;10.94;100.00
36092;BME280;22147;52.388;13.390;2023-08-30T02:52:59;100029.59;;;10.94;100.00
36092;BME280;22147;52.388;13.390;2023-08-30T02:55:30;100021.72;;;10.96;100.00
36092;BME280;22147;52.388;13.390;2023-08-30T02:58:01;100017.63;;;10.94;100.00
36092;BME280;22147;52.388;13.390;2023-08-30T03:00:31;100009.69;;;10.92;100.00
36092;BME280;22147;52.388;13.390;2023-08-30T03:03:02;100007.25;;;10.91;100.00
36092;BME280;22147;52.388;13.390;2023-08-30T03:05:33;100003.66;;;10.90;100.00
36092;BME280;22147;52.388;13.390;2023-08-30T03:08:04;99995.19;;;10.87;100.00
36092;BME280;22147;52.388;13.390;2023-08-30T03:10:34;99998.22;;;10.82;100.00
36092;BME280;22147;52.388;13.390;2023-08-30T03:13:04;99993.00;;;10.80;100.00
36092;BME280;22147;52.388;13.390;2023-08-30T03:15:35;99999.94;;;10.74;100.00
36092;BME280;22147;52.388;13.390;2023-08-30T03:18:05;99996.72;;;10.72;100.00
36092;BME280;22147;52.388;13.390;2023-08-30T03:20:36;99992.66;;;10.69;100.00
36092;BME280;22147;52.388;13.390;2023-08-30T03:23:07;99986.28;;;10.69;100.00
36092;BME280;22147;52.388;13.390;2023-08-30T03:25:37;99983.03;;;10.67;100.00
36092;BME280;22147;52.388;13.390;2023-08-30T03:28:07;99989.28;;;10.64;100.00
36092;BME280;22147;52.388;13.390;2023-08-30T03:30:38;99992.31;;;10.58;100.00
36092;BME280;22147;52.388;13.390;2023-08-30T03:33:08;99995.44;;;10.57;100.00
36092;BME280;22147;52.388;13.390;2023-08-30T03:35:38;99997.88;;;10.58;100.00
36092;BME280;22147;52.388;13.390;2023-08-30T03:38:08;99992.31;;;10.58;100.00
36092;BME280;22147;52.388;13.390;2023-08-30T03:40:39;99998.53;;;10.55;100.00
36092;BME280;22147;52.388;13.390;2023-08-30T03:43:09;100010.44;;;10.56;100.00
36092;BME280;22147;52.388;13.390;2023-08-30T03:45:40;100011.28;;;10.56;100.00
36092;BME280;22147;52.388;13.390;2023-08-30T03:48:10;100016.00;;;10.56;100.00
36092;BME280;22147;52.388;13.390;2023-08-30T03:50:40;100014.06;;;10.56;100.00
36092;BME280;22147;52.388;13.390;2023-08-30T03:53:11;100013.22;;;10.56;100.00
36092;BME280;22147;52.388;13.390;2023-08-30T03:55:41;100020.41;;;10.57;100.00
36092;BME280;22147;52.388;13.390;2023-08-30T03:58:11;100013.22;;;10.56;100.00
36092;BME280;22147;52.388;13.390;2023-08-30T04:00:42;100011.97;;;10.53;100.00
36092;BME280;22147;52.388;13.390;2023-08-30T04:03:14;100005.94;;;10.51;100.00
36092;BME280;22147;52.388;13.390;2023-08-30T04:05:45;100018.69;;;10.52;100.00
36092;BME280;22147;52.388;13.390;2023-08-30T04:08:15;100012.66;;;10.50;100.00
36092;BME280;22147;52.388;13.390;2023-08-30T04:10:46;100003.88;;;10.48;100.00
36092;BME280;22147;52.388;13.390;2023-08-30T04:13:18;100007.31;;;10.45;100.00
36092;BME280;22147;52.388;13.390;2023-08-30T04:15:48;100008.47;;;10.44;100.00
36092;BME280;22147;52.388;13.390;2023-08-30T04:18:18;100009.63;;;10.43;100.00
36092;BME280;22147;52.388;13.390;2023-08-30T04:20:49;100018.41;;;10.45;100.00
36092;BME280;22147;52.388;13.390;2023-08-30T04:23:19;100014.84;;;10.45;100.00
36092;BME280;22147;52.388;13.390;2023-08-30T04:25:49;100019.25;;;10.46;100.00
36092;BME280;22147;52.388;13.390;2023-08-30T04:28:20;100031.97;;;10.47;100.00
36092;BME280;22147;52.388;13.390;2023-08-30T04:30:54;100022.13;;;10.49;100.00
36092;BME280;22147;52.388;13.390;2023-08-30T04:33:25;100036.94;;;10.53;100.00
36092;BME280;22147;52.388;13.390;2023-08-30T04:35:56;100031.53;;;10.57;100.00
36092;BME280;22147;52.388;13.390;2023-08-30T04:38:26;100026.56;;;10.63;100.00
36092;BME280;22147;52.388;13.390;2023-08-30T04:40:58;100024.25;;;10.65;100.00
36092;BME280;22147;52.388;13.390;2023-08-30T04:43:31;100029.81;;;10.65;100.00
36092;BME280;22147;52.388;13.390;2023-08-30T04:45:59;100036.63;;;10.67;100.00
36092;BME280;22147;52.388;13.390;2023-08-30T04:48:28;100033.63;;;10.72;100.00
36092;BME280;22147;52.388;13.390;2023-08-30T04:51:02;100040.09;;;10.76;100.00
36092;BME280;22147;52.388;13.390;2023-08-30T04:53:31;100038.97;;;10.77;100.00
36092;BME280;22147;52.388;13.390;2023-08-30T04:56:13;100044.28;;;10.83;100.00
36092;BME280;22147;52.388;13.390;2023-08-30T04:58:42;100046.25;;;10.82;100.00
36092;BME280;22147;52.388;13.390;2023-08-30T05:01:11;100048.78;;;10.87;100.00
36092;BME280;22147;52.388;13.390;2023-08-30T05:03:43;100051.81;;;10.94;100.00
36092;BME280;22147;52.388;13.390;2023-08-30T05:06:13;100052.84;;;11.02;100.00
36092;BME280;22147;52.388;13.390;2023-08-30T05:08:45;100059.78;;;11.08;100.00
36092;BME280;22147;52.388;13.390;2023-08-30T05:11:13;100055.28;;;11.16;100.00
36092;BME280;22147;52.388;13.390;2023-08-30T05:13:42;100066.72;;;11.27;100.00
36092;BME280;22147;52.388;13.390;2023-08-30T05:16:10;100060.34;;;11.38;100.00
36092;BME280;22147;52.388;13.390;2023-08-30T05:18:38;100055.47;;;11.48;100.00
36092;BME280;22147;52.388;13.390;2023-08-30T05:21:07;100058.81;;;11.53;100.00
36092;BME280;22147;52.388;13.390;2023-08-30T05:23:35;100054.06;;;11.54;100.00
36092;BME280;22147;52.388;13.390;2023-08-30T05:26:10;100052.22;;;11.58;100.00
36092;BME280;22147;52.388;13.390;2023-08-30T05:28:43;100045.13;;;11.60;100.00
36092;BME280;22147;52.388;13.390;2023-08-30T05:31:13;100043.97;;;11.61;100.00
36092;BME280;22147;52.388;13.390;2023-08-30T05:33:43;100037.44;;;11.70;100.00
36092;BME280;22147;52.388;13.390;2023-08-30T05:36:14;100042.22;;;11.69;100.00
36092;BME280;22147;52.388;13.390;2023-08-30T05:38:47;100040.13;;;11.66;100.00
36092;BME280;22147;52.388;13.390;2023-08-30T05:41:17;100040.22;;;11.70;100.00
36092;BME280;22147;52.388;13.390;2023-08-30T05:43:47;100041.16;;;11.74;100.00
36092;BME280;22147;52.388;13.390;2023-08-30T05:46:18;100031.84;;;11.82;100.00
36092;BME280;22147;52.388;13.390;2023-08-30T05:48:48;100035.69;;;11.90;100.00
36092;BME280;22147;52.388;13.390;2023-08-30T05:51:18;100032.38;;;12.00;100.00
36092;BME280;22147;52.388;13.390;2023-08-30T05:53:50;100033.50;;;12.11;100.00
36092;BME280;22147;52.388;13.390;2023-08-30T05:56:20;100040.50;;;12.21;100.00
36092;BME280;22147;52.388;13.390;2023-08-30T05:58:50;100038.00;;;12.32;100.00
36092;BME280;22147;52.388;13.390;2023-08-30T06:01:20;100035.78;;;12.37;100.00
36092;BME280;22147;52.388;13.390;2023-08-30T06:03:50;100029.16;;;12.42;100.00
36092;BME280;22147;52.388;13.390;2023-08-30T06:06:21;100023.78;;;12.49;100.00
36092;BME280;22147;52.388;13.390;2023-08-30T06:08:52;100021.44;;;12.51;100.00
36092;BME280;22147;52.388;13.390;2023-08-30T06:11:22;100017.84;;;12.51;100.00
36092;BME280;22147;52.388;13.390;2023-08-30T06:13:52;100019.91;;;12.54;100.00
36092;BME280;22147;52.388;13.390;2023-08-30T06:16:22;100022.06;;;12.60;100.00
36092;BME280;22147;52.388;13.390;2023-08-30T06:18:53;100017.50;;;12.68;100.00
36092;BME280;22147;52.388;13.390;2023-08-30T06:21:23;100012.91;;;12.76;100.00
36092;BME280;22147;52.388;13.390;2023-08-30T06:23:54;100012.25;;;12.82;100.00
36092;BME280;22147;52.388;13.390;2023-08-30T06:26:24;100008.47;;;12.91;100.00
36092;BME280;22147;52.388;13.390;2023-08-30T06:28:54;100015.78;;;12.95;100.00
36092;BME280;22147;52.388;13.390;2023-08-30T06:31:33;100004.00;;;13.02;100.00
36092;BME280;22147;52.388;13.390;2023-08-30T06:34:03;100008.81;;;13.05;100.00
36092;BME280;22147;52.388;13.390;2023-08-30T06:36:34;100003.78;;;13.11;100.00
36092;BME280;22147;52.388;13.390;2023-08-30T06:39:04;100014.66;;;13.16;100.00
36092;BME280;22147;52.388;13.390;2023-08-30T06:41:34;100019.22;;;13.24;100.00
36092;BME280;22147;52.388;13.390;2023-08-30T06:44:05;100017.44;;;13.32;100.00
36092;BME280;22147;52.388;13.390;2023-08-30T06:46:35;100019.13;;;13.36;100.00
36092;BME280;22147;52.388;13.390;2023-08-30T06:49:07;100004.63;;;13.47;100.00
36092;BME280;22147;52.388;13.390;2023-08-30T06:51:39;100009.34;;;13.62;100.00
36092;BME280;22147;52.388;13.390;2023-08-30T06:54:09;100007.06;;;13.68;100.00
36092;BME280;22147;52.388;13.390;2023-08-30T06:56:39;100005.63;;;13.74;100.00
36092;BME280;22147;52.388;13.390;2023-08-30T06:59:09;100004.41;;;13.75;100.00
36092;BME280;22147;52.388;13.390;2023-08-30T07:01:40;100012.28;;;13.89;100.00
36092;BME280;22147;52.388;13.390;2023-08-30T07:04:10;100012.41;;;13.96;100.00
36092;BME280;22147;52.388;13.390;2023-08-30T07:06:40;100011.53;;;14.11;100.00
36092;BME280;22147;52.388;13.390;2023-08-30T07:09:10;100009.88;;;14.30;100.00
36092;BME280;22147;52.388;13.390;2023-08-30T07:11:44;100020.09;;;14.41;100.00
36092;BME280;22147;52.388;13.390;2023-08-30T07:14:15;100023.03;;;14.29;100.00
36092;BME280;22147;52.388;13.390;2023-08-30T07:16:43;100015.16;;;14.35;100.00
36092;BME280;22147;52.388;13.390;2023-08-30T07:19:12;100008.16;;;14.44;100.00
36092;BME280;22147;52.388;13.390;2023-08-30T07:21:41;100011.47;;;14.50;100.00
36092;BME280;22147;52.388;13.390;2023-08-30T07:24:12;100012.41;;;14.58;100.00
36092;BME280;22147;52.388;13.390;2023-08-30T07:26:40;100007.66;;;14.58;100.00
36092;BME280;22147;52.388;13.390;2023-08-30T07:29:09;100011.16;;;14.55;100.00
36092;BME280;22147;52.388;13.390;2023-08-30T07:31:37;100010.91;;;14.64;100.00
36092;BME280;22147;52.388;13.390;2023-08-30T07:34:05;100017.81;;;14.70;100.00
36092;BME280;22147;52.388;13.390;2023-08-30T07:36:34;100008.63;;;14.70;100.00
36092;BME280;22147;52.388;13.390;2023-08-30T07:39:16;100006.63;;;14.70;100.00
36092;BME280;22147;52.388;13.390;2023-08-30T07:41:46;100015.88;;;14.74;100.00
36092;BME280;22147;52.388;13.390;2023-08-30T07:44:16;100007.16;;;14.79;100.00
36092;BME280;22147;52.388;13.390;2023-08-30T07:46:46;100019.63;;;14.82;100.00
36092;BME280;22147;52.388;13.390;2023-08-30T07:49:17;100029.72;;;14.90;100.00
36092;BME280;22147;52.388;13.390;2023-08-30T07:51:46;100030.28;;;14.99;100.00
36092;BME280;22147;52.388;13.390;2023-08-30T07:54:14;100038.28;;;15.01;100.00
36092;BME280;22147;52.388;13.390;2023-08-30T07:56:43;100036.38;;;15.05;100.00
36092;BME280;22147;52.388;13.390;2023-08-30T07:59:12;100038.06;;;15.13;100.00
36092;BME280;22147;52.388;13.390;2023-08-30T08:01:43;100037.69;;;15.15;100.00
36092;BME280;22147;52.388;13.390;2023-08-30T08:04:11;100034.97;;;15.18;100.00
36092;BME280;22147;52.388;13.390;2023-08-30T08:06:40;100035.41;;;15.20;100.00
36092;BME280;22147;52.388;13.390;2023-08-30T08:09:08;100037.06;;;15.25;100.00
36092;BME280;22147;52.388;13.390;2023-08-30T08:11:36;100036.25;;;15.24;100.00
36092;BME280;22147;52.388;13.390;2023-08-30T08:14:05;100026.66;;;15.25;100.00
36092;BME280;22147;52.388;13.390;2023-08-30T08:16:33;100037.28;;;15.39;100.00
36092;BME280;22147;52.388;13.390;2023-08-30T08:19:02;100031.78;;;15.46;100.00
36092;BME280;22147;52.388;13.390;2023-08-30T08:21:30;100031.41;;;15.48;100.00
36092;BME280;22147;52.388;13.390;2023-08-30T08:23:59;100027.41;;;15.49;100.00
36092;BME280;22147;52.388;13.390;2023-08-30T08:26:27;100021.81;;;15.49;100.00
36092;BME280;22147;52.388;13.390;2023-08-30T08:28:56;100025.38;;;15.46;100.00
36092;BME280;22147;52.388;13.390;2023-08-30T08:31:24;100026.47;;;15.38;100.00
36092;BME280;22147;52.388;13.390;2023-08-30T08:34:11;100029.75;;;15.43;100.00
36092;BME280;22147;52.388;13.390;2023-08-30T08:36:42;100029.78;;;15.47;100.00
36092;BME280;22147;52.388;13.390;2023-08-30T08:39:13;100024.00;;;15.63;100.00
36092;BME280;22147;52.388;13.390;2023-08-30T08:41:45;100021.50;;;15.84;100.00
36092;BME280;22147;52.388;13.390;2023-08-30T08:44:18;100018.63;;;16.11;100.00
36092;BME280;22147;52.388;13.390;2023-08-30T08:46:50;100024.69;;;16.17;100.00
36092;BME280;22147;52.388;13.390;2023-08-30T08:49:22;100021.63;;;16.29;100.00
36092;BME280;22147;52.388;13.390;2023-08-30T08:51:58;100014.97;;;16.44;100.00
36092;BME280;22147;52.388;13.390;2023-08-30T08:54:33;100015.09;;;16.18;100.00
36092;BME280;22147;52.388;13.390;2023-08-30T08:57:06;100012.75;;;15.86;100.00
36092;BME280;22147;52.388;13.390;2023-08-30T08:59:37;100018.59;;;16.07;100.00
36092;BME280;22147;52.388;13.390;2023-08-30T09:02:13;100014.47;;;16.35;100.00
36092;BME280;22147;52.388;13.390;2023-08-30T09:04:45;100015.56;;;16.23;100.00
36092;BME280;22147;52.388;13.390;2023-08-30T09:07:15;100012.91;;;16.38;100.00
36092;BME280;22147;52.388;13.390;2023-08-30T09:09:48;100009.78;;;16.46;100.00
36092;BME280;22147;52.388;13.390;2023-08-30T09:12:19;100007.16;;;16.64;100.00
36092;BME280;22147;52.388;13.390;2023-08-30T09:14:58;100006.47;;;16.78;100.00
36092;BME280;22147;52.388;13.390;2023-08-30T09:17:39;99999.25;;;16.77;100.00
36092;BME280;22147;52.388;13.390;2023-08-30T09:20:15;99997.44;;;16.99;100.00
36092;BME280;22147;52.388;13.390;2023-08-30T09:22:46;100002.47;;;17.31;100.00
36092;BME280;22147;52.388;13.390;2023-08-30T09:25:25;99994.16;;;17.49;100.00
36092;BME280;22147;52.388;13.390;2023-08-30T09:27:58;100003.50;;;17.71;100.00
36092;BME280;22147;52.388;13.390;2023-08-30T09:30:29;100003.09;;;17.73;100.00
36092;BME280;22147;52.388;13.390;2023-08-30T09:33:02;99997.47;;;17.65;100.00
36092;BME280;22147;52.388;13.390;2023-08-30T09:35:44;99994.59;;;17.58;100.00
36092;BME280;22147;52.388;13.390;2023-08-30T09:38:19;100003.09;;;17.73;100.00
36092;BME280;22147;52.388;13.390;2023-08-30T09:40:48;99998.44;;;18.02;100.00
36092;BME280;22147;52.388;13.390;2023-08-30T09:43:20;99998.88;;;18.15;100.00
36092;BME280;22147;52.388;13.390;2023-08-30T09:45:54;99998.50;;;18.16;100.00
36092;BME280;22147;52.388;13.390;2023-08-30T09:48:28;99999.31;;;18.20;100.00
36092;BME280;22147;52.388;13.390;2023-08-30T09:51:03;100004.53;;;18.33;100.00
36092;BME280;22147;52.388;13.390;2023-08-30T09:53:44;99992.09;;;18.44;100.00
36092;BME280;22147;52.388;13.390;2023-08-30T09:56:36;99995.72;;;18.56;100.00
36092;BME280;22147;52.388;13.390;2023-08-30T09:59:09;99988.09;;;18.70;100.00
36092;BME280;22147;52.388;13.390;2023-08-30T10:01:43;99983.72;;;18.87;100.00
36092;BME280;22147;52.388;13.390;2023-08-30T10:04:15;99981.72;;;18.84;92.78
36092;BME280;22147;52.388;13.390;2023-08-30T10:06:47;99983.28;;;18.53;96.07
36092;BME280;22147;52.388;13.390;2023-08-30T10:09:19;99974.84;;;18.57;97.35
36092;BME280;22147;52.388;13.390;2023-08-30T10:11:51;99971.63;;;18.62;92.20
36092;BME280;22147;52.388;13.390;2023-08-30T10:14:22;99968.44;;;18.52;94.95
36092;BME280;22147;52.388;13.390;2023-08-30T10:17:03;99974.06;;;18.81;97.02
36092;BME280;22147;52.388;13.390;2023-08-30T10:19:38;99974.44;;;19.12;98.08
36092;BME280;22147;52.388;13.390;2023-08-30T10:22:07;99976.41;;;19.33;91.13
36092;BME280;22147;52.388;13.390;2023-08-30T10:24:57;99969.94;;;19.47;83.33
36092;BME280;22147;52.388;13.390;2023-08-30T10:27:53;99974.69;;;19.68;84.57
36092;BME280;22147;52.388;13.390;2023-08-30T10:30:26;99983.16;;;19.71;74.89
36092;BME280;22147;52.388;13.390;2023-08-30T10:32:57;99980.34;;;19.71;75.47
36092;BME280;22147;52.388;13.390;2023-08-30T10:35:28;99986.38;;;19.63;76.31
36092;BME280;22147;52.388;13.390;2023-08-30T10:38:00;99986.00;;;19.57;77.06
36092;BME280;22147;52.388;13.390;2023-08-30T10:40:30;99985.63;;;19.48;80.95
36092;BME280;22147;52.388;13.390;2023-08-30T10:43:04;99976.81;;;19.35;79.68
36092;BME280;22147;52.388;13.390;2023-08-30T10:45:35;99976.84;;;19.24;76.68
36092;BME280;22147;52.388;13.390;2023-08-30T10:48:05;99989.31;;;18.98;72.97
36092;BME280;22147;52.388;13.390;2023-08-30T10:50:36;99980.50;;;18.96;78.37
36092;BME280;22147;52.388;13.390;2023-08-30T10:53:13;99989.31;;;19.12;78.07
36092;BME280;22147;52.388;13.390;2023-08-30T10:56:07;99987.28;;;19.27;79.01
36092;BME280;22147;52.388;13.390;2023-08-30T10:58:43;99986.06;;;19.39;75.96
36092;BME280;22147;52.388;13.390;2023-08-30T11:01:15;99988.03;;;19.46;77.19
36092;BME280;22147;52.388;13.390;2023-08-30T11:03:46;99995.66;;;19.49;75.27
36092;BME280;22147;52.388;13.390;2023-08-30T11:06:21;99999.38;;;19.14;73.22
36092;BME280;22147;52.388;13.390;2023-08-30T11:08:51;99994.16;;;19.01;73.75
36092;BME280;22147;52.388;13.390;2023-08-30T11:11:24;99984.50;;;19.02;81.66
36092;BME280;22147;52.388;13.390;2023-08-30T11:13:54;99990.94;;;18.96;83.22
36092;BME280;22147;52.388;13.390;2023-08-30T11:16:34;99996.97;;;19.12;82.28
36092;BME280;22147;52.388;13.390;2023-08-30T11:19:09;99992.13;;;19.27;77.74
36092;BME280;22147;52.388;13.390;2023-08-30T11:21:44;99993.72;;;19.24;77.46
36092;BME280;22147;52.388;13.390;2023-08-30T11:24:15;99991.34;;;19.16;75.09
36092;BME280;22147;52.388;13.390;2023-08-30T11:26:45;99991.72;;;19.07;78.39
36092;BME280;22147;52.388;13.390;2023-08-30T11:29:16;99987.31;;;19.02;75.87
36092;BME280;22147;52.388;13.390;2023-08-30T11:31:46;99981.69;;;18.91;79.68
36092;BME280;22147;52.388;13.390;2023-08-30T11:34:14;99988.94;;;18.78;76.26
36092;BME280;22147;52.388;13.390;2023-08-30T11:36:50;99986.50;;;18.62;79.44
36092;BME280;22147;52.388;13.390;2023-08-30T11:39:23;99968.41;;;18.45;81.10
36092;BME280;22147;52.388;13.390;2023-08-30T11:41:53;99982.84;;;18.37;86.78
36092;BME280;22147;52.388;13.390;2023-08-30T11:44:29;99978.00;;;18.26;86.10
36092;BME280;22147;52.388;13.390;2023-08-30T11:47:00;99974.41;;;18.19;83.55
36092;BME280;22147;52.388;13.390;2023-08-30T11:49:30;99975.19;;;18.19;82.97
36092;BME280;22147;52.388;13.390;2023-08-30T11:52:01;99973.97;;;18.06;82.78
36092;BME280;22147;52.388;13.390;2023-08-30T11:54:32;99972.72;;;17.93;83.43
36092;BME280;22147;52.388;13.390;2023-08-30T11:57:03;99978.75;;;17.91;86.11
36092;BME280;22147;52.388;13.390;2023-08-30T11:59:37;99979.59;;;18.06;91.68
36092;BME280;22147;52.388;13.390;2023-08-30T12:02:11;99978.00;;;18.12;87.29
36092;BME280;22147;52.388;13.390;2023-08-30T12:04:45;99975.19;;;18.16;85.41
36092;BME280;22147;52.388;13.390;2023-08-30T12:07:27;99975.59;;;18.14;83.44
36092;BME280;22147;52.388;13.390;2023-08-30T12:10:08;99971.97;;;18.06;88.66
36092;BME280;22147;52.388;13.390;2023-08-30T12:12:45;99966.75;;;18.08;88.08
36092;BME280;22147;52.388;13.390;2023-08-30T12:15:16;99964.72;;;18.09;86.24
36092;BME280;22147;52.388;13.390;2023-08-30T12:17:46;99967.50;;;17.98;84.57
36092;BME280;22147;52.388;13.390;2023-08-30T12:20:18;99961.50;;;17.96;86.98
36092;BME280;22147;52.388;13.390;2023-08-30T12:22:50;99962.72;;;17.95;89.26
36092;BME280;22147;52.388;13.390;2023-08-30T12:25:22;99968.72;;;17.94;89.49
36092;BME280;22147;52.388;13.390;2023-08-30T12:27:53;99971.13;;;17.95;89.01
36092;BME280;22147;52.388;13.390;2023-08-30T12:30:23;99963.50;;;17.96;88.28
36092;BME280;22147;52.388;13.390;2023-08-30T12:33:00;99959.88;;;17.99;90.13
36092;BME280;22147;52.388;13.390;2023-08-30T12:35:34;99959.50;;;18.07;86.87
36092;BME280;22147;52.388;13.390;2023-08-30T12:38:02;99954.31;;;18.17;88.46
36092;BME280;22147;52.388;13.390;2023-08-30T12:40:31;99954.34;;;18.20;86.88
36092;BME280;22147;52.388;13.390;2023-08-30T12:42:59;99952.38;;;18.46;86.39
36092;BME280;22147;52.388;13.390;2023-08-30T12:45:27;99951.94;;;18.76;83.24
36092;BME280;22147;52.388;13.390;2023-08-30T12:47:56;99956.38;;;19.02;81.20
36092;BME280;22147;52.388;13.390;2023-08-30T12:50:28;99962.78;;;19.14;79.54
36092;BME280;22147;52.388;13.390;2023-08-30T12:52:56;99950.28;;;19.25;77.52
36092;BME280;22147;52.388;13.390;2023-08-30T12:55:24;99953.47;;;19.38;77.83
36092;BME280;22147;52.388;13.390;2023-08-30T12:57:53;99950.66;;;19.45;75.36
36092;BME280;22147;52.388;13.390;2023-08-30T13:00:22;99952.63;;;19.52;75.70
36092;BME280;22147;52.388;13.390;2023-08-30T13:02:53;99948.22;;;19.44;75.69
36092;BME280;22147;52.388;13.390;2023-08-30T13:05:21;99949.09;;;19.23;72.63
36092;BME280;22147;52.388;13.390;2023-08-30T13:07:49;99943.53;;;19.01;78.65